createdAt,value
2019-01-23T00:05:02.425Z,-3.372498
2019-01-23T00:10:25.208Z,-3.392639
2019-01-23T00:15:48.889Z,-3.432922
2019-01-23T00:21:12.566Z,-3.473206
2019-01-23T00:26:35.298Z,-3.513489
2019-01-23T00:31:58.055Z,-3.513489
2019-01-23T00:37:20.792Z,-3.543701
2019-01-23T00:42:43.483Z,-3.573914
2019-01-23T00:48:06.332Z,-3.543701
2019-01-23T00:53:29.122Z,-3.553772
2019-01-23T00:58:53.426Z,-3.594055
2019-01-23T01:04:16.150Z,-3.614197
2019-01-23T01:09:38.971Z,-3.614197
2019-01-23T01:15:01.701Z,-3.614197
2019-01-23T01:20:25.541Z,-3.614197
2019-01-23T01:25:48.516Z,-3.614197
2019-01-23T01:31:11.453Z,-3.614197
2019-01-23T01:36:34.254Z,-3.594055
2019-01-23T01:41:57.025Z,-3.583984
2019-01-23T01:47:19.795Z,-3.624268
2019-01-23T01:52:42.654Z,-3.624268
2019-01-23T01:58:05.579Z,-3.704834
2019-01-23T02:03:30.333Z,-3.7854
2019-01-23T02:08:52.192Z,-3.825684
2019-01-23T02:14:14.897Z,-3.855896
2019-01-23T02:19:37.718Z,-3.876038
2019-01-23T02:25:00.500Z,-3.916321
2019-01-23T02:30:23.278Z,-3.90625
2019-01-23T02:35:46.079Z,-3.936462
2019-01-23T02:41:08.880Z,-3.90625
2019-01-23T02:46:31.644Z,-3.966675
2019-01-23T02:51:54.401Z,-3.966675
2019-01-23T02:57:19.890Z,-3.966675
2019-01-23T03:02:42.764Z,-3.986816
2019-01-23T03:08:05.529Z,-3.966675
2019-01-23T03:13:28.459Z,-3.976746
2019-01-23T03:18:51.256Z,-3.966675
2019-01-23T03:24:13.988Z,-3.946533
2019-01-23T03:29:36.817Z,-3.966675
2019-01-23T03:34:59.657Z,-3.936462
2019-01-23T03:40:22.998Z,-3.936462
2019-01-23T03:45:45.829Z,-3.946533
2019-01-23T03:51:08.691Z,-3.946533
2019-01-23T03:56:31.643Z,-3.946533
2019-01-23T04:01:54.396Z,-3.966675
2019-01-23T04:07:17.111Z,-3.986816
2019-01-23T04:12:40.041Z,-3.986816
2019-01-23T04:18:02.921Z,-4.03717
2019-01-23T04:23:25.656Z,-4.03717
2019-01-23T04:28:48.546Z,-4.006958
2019-01-23T04:34:11.431Z,-3.946533
2019-01-23T04:39:34.195Z,-3.946533
2019-01-23T04:44:57.006Z,-4.057312
2019-01-23T04:50:19.677Z,-4.087524
2019-01-23T04:55:42.391Z,-4.057312
2019-01-23T05:01:05.279Z,-3.986816
2019-01-23T05:06:27.902Z,-4.067383
2019-01-23T05:11:50.590Z,-4.127808
2019-01-23T05:17:14.284Z,-4.127808
2019-01-23T05:22:37.170Z,-4.067383
2019-01-23T05:28:00.023Z,-3.966675
2019-01-23T05:33:22.923Z,-3.825684
2019-01-23T05:38:45.745Z,-3.735046
2019-01-23T05:44:08.633Z,-3.594055
2019-01-23T05:49:31.431Z,-3.493347
2019-01-23T05:54:55.932Z,-3.442993
2019-01-23T06:00:19.625Z,-3.40271
2019-01-23T06:05:42.361Z,-3.332214
2019-01-23T06:11:05.048Z,-3.302002
2019-01-23T06:16:27.747Z,-3.261719
2019-01-23T06:21:50.613Z,-3.261719
2019-01-23T06:27:12.644Z,-3.251648
2019-01-23T06:32:35.357Z,-3.231506
2019-01-23T06:37:58.273Z,-3.211365
2019-01-23T06:43:21.682Z,-3.181152
2019-01-23T06:48:45.083Z,-3.161011
2019-01-23T06:54:07.865Z,-3.15094
2019-01-23T06:59:30.581Z,-3.100586
2019-01-23T07:04:53.290Z,-3.050232
2019-01-23T07:10:16.017Z,-3.009949
2019-01-23T07:15:39.465Z,-2.999878
2019-01-23T07:21:02.167Z,-2.969666
2019-01-23T07:26:25.029Z,-2.929382
2019-01-23T07:31:48.093Z,-2.838745
2019-01-23T07:37:11.111Z,-2.798462
2019-01-23T07:42:34.065Z,-2.76825
2019-01-23T07:47:57.225Z,-2.707825
2019-01-23T07:53:20.185Z,-2.637329
2019-01-23T07:58:43.172Z,-2.546692
2019-01-23T08:04:05.943Z,-2.425842
2019-01-23T08:09:28.626Z,-2.325134
2019-01-23T08:14:52.289Z,-2.244568
2019-01-23T08:20:15.050Z,-2.133789
2019-01-23T08:25:37.822Z,-2.012939
2019-01-23T08:31:00.504Z,-1.982727
2019-01-23T08:36:23.526Z,-1.962585
2019-01-23T08:41:46.444Z,-1.902161
2019-01-23T08:47:09.409Z,-1.922302
2019-01-23T08:52:32.584Z,-1.831665
2019-01-23T08:57:55.757Z,-1.670532
2019-01-23T09:03:18.983Z,-1.610107
2019-01-23T09:08:42.103Z,-1.438904
2019-01-23T09:14:05.226Z,-1.469116
2019-01-23T09:19:28.205Z,-1.529541
2019-01-23T09:24:51.216Z,-1.328125
2019-01-23T09:30:14.272Z,-1.066284
2019-01-23T09:35:37.348Z,-0.915222
2019-01-23T09:41:00.432Z,-1.197205
2019-01-23T09:46:23.264Z,-1.307983
2019-01-23T09:51:46.542Z,-1.287842
2019-01-23T09:57:09.518Z,-1.348267
2019-01-23T10:02:32.190Z,-1.207275
2019-01-23T10:07:54.881Z,-1.066284
2019-01-23T10:13:17.572Z,-1.01593
2019-01-23T10:18:40.806Z,-1.096497
2019-01-23T10:24:03.485Z,-0.774231
2019-01-23T10:29:26.181Z,-0.804443
2019-01-23T10:34:48.849Z,-0.834656
2019-01-23T10:40:11.580Z,-0.895081
2019-01-23T10:45:36.096Z,-0.925293
2019-01-23T10:50:59.664Z,-0.76416
2019-01-23T10:56:22.529Z,-0.492249
2019-01-23T11:01:46.929Z,-0.270691
2019-01-23T11:07:09.711Z,-0.341187
2019-01-23T11:12:33.449Z,-0.744019
2019-01-23T11:17:56.463Z,0.051575
2019-01-23T11:23:19.779Z,0.051575
2019-01-23T11:28:42.779Z,-0.26062
2019-01-23T11:34:05.762Z,-0.230408
2019-01-23T11:39:28.943Z,-0.472107
2019-01-23T11:44:51.722Z,-0.502319
2019-01-23T11:50:21.000Z,-0.492249
2019-01-23T11:55:38.106Z,-0.139771
2019-01-23T12:01:01.724Z,-0.371399
2019-01-23T12:06:25.320Z,-1.177063
2019-01-23T12:11:48.119Z,-0.683594
2019-01-23T12:17:11.733Z,-0.492249
2019-01-23T12:22:34.715Z,-0.532532
2019-01-23T12:27:57.698Z,-0.300903
2019-01-23T12:33:20.786Z,-0.532532
2019-01-23T12:38:43.812Z,-0.592957
2019-01-23T12:44:06.776Z,-0.804443
2019-01-23T12:49:30.104Z,-0.603027
2019-01-23T12:54:53.132Z,-0.703735
2019-01-23T13:00:16.023Z,-0.623169
2019-01-23T13:05:39.465Z,-0.562744
2019-01-23T13:11:02.106Z,-0.532532
2019-01-23T13:16:26.837Z,-0.502319
2019-01-23T13:21:49.555Z,-0.552673
2019-01-23T13:27:12.316Z,-0.552673
2019-01-23T13:32:35.642Z,-0.673523
2019-01-23T13:37:58.281Z,-0.814514
2019-01-23T13:43:21.343Z,-0.713806
2019-01-23T13:48:44.245Z,-0.76416
2019-01-23T13:54:07.125Z,-0.834656
2019-01-23T13:59:30.100Z,-0.774231
2019-01-23T14:04:53.629Z,-0.925293
2019-01-23T14:10:16.999Z,-1.066284
2019-01-23T14:15:39.980Z,-1.096497
2019-01-23T14:21:02.844Z,-1.247559
2019-01-23T14:26:25.656Z,-1.146851
2019-01-23T14:31:48.370Z,-1.227417
2019-01-23T14:37:12.955Z,-1.378479
2019-01-23T14:42:35.785Z,-1.459045
2019-01-23T14:47:59.182Z,-1.650391
2019-01-23T14:53:22.147Z,-1.539612
2019-01-23T14:58:44.975Z,-1.720886
2019-01-23T15:04:07.995Z,-1.781311
2019-01-23T15:09:30.947Z,-1.751099
2019-01-23T15:14:53.861Z,-1.861877
2019-01-23T15:20:16.573Z,-1.902161
2019-01-23T15:25:39.375Z,-2.073364
2019-01-23T15:31:02.158Z,-2.184143
2019-01-23T15:36:24.910Z,-2.214355
2019-01-23T15:41:47.623Z,-2.244568
2019-01-23T15:47:10.251Z,-2.325134
2019-01-23T15:52:33.736Z,-2.456055
2019-01-23T15:57:56.391Z,-2.496338
2019-01-23T16:03:19.146Z,-2.586975
2019-01-23T16:08:41.882Z,-2.617188
2019-01-23T16:14:04.648Z,-2.717896
2019-01-23T16:19:27.644Z,-2.798462
2019-01-23T16:24:51.431Z,-2.939453
2019-01-23T16:30:15.421Z,-3.02002
2019-01-23T16:35:39.031Z,-3.251648
2019-01-23T16:41:01.468Z,-3.412781
2019-01-23T16:46:24.242Z,-3.52356
2019-01-23T16:51:51.266Z,-3.644409
2019-01-23T16:57:09.634Z,-3.7854
2019-01-23T17:02:38.466Z,-3.90625
2019-01-23T17:07:55.239Z,-3.90625
2019-01-23T17:13:18.066Z,-3.976746
2019-01-23T17:18:40.758Z,-3.986816
2019-01-23T17:24:03.678Z,-4.127808
2019-01-23T17:29:30.593Z,-4.168091
2019-01-23T17:34:49.025Z,-4.228516
2019-01-23T17:40:11.759Z,-4.359436
2019-01-23T17:45:34.746Z,-4.580994
2019-01-23T17:50:57.837Z,-4.762268
2019-01-23T17:56:20.904Z,-4.691772
2019-01-23T18:01:45.512Z,-4.480286
2019-01-23T18:07:08.520Z,-4.359436
2019-01-23T18:12:31.626Z,-4.359436
2019-01-23T18:17:54.753Z,-4.379578
2019-01-23T18:23:17.864Z,-4.591064
2019-01-23T18:28:40.893Z,-4.450073
2019-01-23T18:34:03.825Z,-4.520569
2019-01-23T18:39:26.896Z,-4.591064
2019-01-23T18:44:49.809Z,-4.79248
2019-01-23T18:50:12.715Z,-5.03418
2019-01-23T18:55:37.560Z,-4.732056
2019-01-23T19:01:00.501Z,-4.772339
2019-01-23T19:06:27.321Z,-4.701843
2019-01-23T19:11:50.142Z,-4.671631
2019-01-23T19:17:13.194Z,-4.772339
2019-01-23T19:22:36.048Z,-4.852905
2019-01-23T19:27:58.814Z,-4.883118
2019-01-23T19:33:22.475Z,-4.883118
2019-01-23T19:38:45.180Z,-5.014038
2019-01-23T19:44:08.021Z,-5.225525
2019-01-23T19:49:31.017Z,-5.155029
2019-01-23T19:54:54.052Z,-5.1651
2019-01-23T20:00:16.802Z,-5.547791
2019-01-23T20:05:39.803Z,-5.628357
2019-01-23T20:11:02.878Z,-5.638428
2019-01-23T20:16:25.950Z,-5.688782
2019-01-23T20:21:49.011Z,-5.66864
2019-01-23T20:27:11.910Z,-5.769348
2019-01-23T20:32:34.832Z,-5.870056
2019-01-23T20:37:57.881Z,-5.809631
2019-01-23T20:43:20.696Z,-5.819702
2019-01-23T20:48:44.221Z,-5.980835
2019-01-23T20:54:07.216Z,-5.990906
2019-01-23T20:59:30.037Z,-5.990906
2019-01-23T21:04:52.821Z,-5.819702
2019-01-23T21:10:15.754Z,-5.849915
2019-01-23T21:15:38.570Z,-5.990906
2019-01-23T21:21:01.435Z,-6.212463
2019-01-23T21:26:24.865Z,-6.162109
2019-01-23T21:31:48.225Z,-6.202393
2019-01-23T21:37:12.032Z,-6.131897
2019-01-23T21:42:35.970Z,-6.141968
2019-01-23T21:47:58.788Z,-6.17218
2019-01-23T21:53:21.701Z,-6.081543
2019-01-23T21:58:44.562Z,-6.212463
2019-01-23T22:04:08.608Z,-6.353455
2019-01-23T22:09:29.954Z,-6.242676
2019-01-23T22:14:52.675Z,-6.192322
2019-01-23T22:20:15.479Z,-6.212463
2019-01-23T22:25:38.162Z,-6.393738
2019-01-23T22:31:00.805Z,-6.625366
2019-01-23T22:36:23.541Z,-6.846924
2019-01-23T22:41:46.240Z,-7.018127
2019-01-23T22:47:08.904Z,-6.92749
2019-01-23T22:52:31.573Z,-7.108765
2019-01-23T22:57:54.423Z,-7.420959
2019-01-23T23:03:17.801Z,-7.390747
2019-01-23T23:08:40.615Z,-7.169189
2019-01-23T23:14:04.646Z,-6.92749
2019-01-23T23:19:28.349Z,-6.716003
2019-01-23T23:24:51.225Z,-6.534729
2019-01-23T23:30:14.234Z,-6.665649
2019-01-23T23:35:37.129Z,-6.786499
2019-01-23T23:41:00.770Z,-6.836853
2019-01-23T23:46:24.215Z,-6.766357
2019-01-23T23:51:46.973Z,-6.413879
2019-01-23T23:57:09.725Z,-6.454163
